sensor_id;sensor_type;location;lat;lon;timestamp;temperature;humidity
31819;DHT22;18384;48.860;9.188;2023-03-01T00:01:02;2.20;94.40
31819;DHT22;18384;48.860;9.188;2023-03-01T00:03:29;2.20;94.50
31819;DHT22;18384;48.860;9.188;2023-03-01T00:05:55;2.20;94.50
31819;DHT22;18384;48.860;9.188;2023-03-01T00:08:21;2.20;94.50
31819;DHT22;18384;48.860;9.188;2023-03-01T00:10:47;2.20;94.40
31819;DHT22;18384;48.860;9.188;2023-03-01T00:13:13;2.20;94.70
31819;DHT22;18384;48.860;9.188;2023-03-01T00:15:39;3.40;94.80
31819;DHT22;18384;48.860;9.188;2023-03-01T00:18:07;2.10;94.60
31819;DHT22;18384;48.860;9.188;2023-03-01T00:20:33;2.10;94.60
31819;DHT22;18384;48.860;9.188;2023-03-01T00:23:00;2.10;94.80
31819;DHT22;18384;48.860;9.188;2023-03-01T00:25:26;2.10;94.80
31819;DHT22;18384;48.860;9.188;2023-03-01T00:27:52;2.10;94.70
31819;DHT22;18384;48.860;9.188;2023-03-01T00:30:18;2.00;94.70
31819;DHT22;18384;48.860;9.188;2023-03-01T00:32:43;1.80;94.90
31819;DHT22;18384;48.860;9.188;2023-03-01T00:35:09;1.80;95.30
31819;DHT22;18384;48.860;9.188;2023-03-01T00:37:35;1.80;95.10
31819;DHT22;18384;48.860;9.188;2023-03-01T00:40:01;1.70;95.20
31819;DHT22;18384;48.860;9.188;2023-03-01T00:42:31;1.70;95.30
31819;DHT22;18384;48.860;9.188;2023-03-01T00:44:57;1.70;95.30
31819;DHT22;18384;48.860;9.188;2023-03-01T00:47:23;1.60;95.60
31819;DHT22;18384;48.860;9.188;2023-03-01T00:49:49;1.60;95.40
31819;DHT22;18384;48.860;9.188;2023-03-01T00:52:15;1.70;95.40
31819;DHT22;18384;48.860;9.188;2023-03-01T00:54:41;1.70;95.40
31819;DHT22;18384;48.860;9.188;2023-03-01T00:57:07;1.70;95.40
31819;DHT22;18384;48.860;9.188;2023-03-01T00:59:33;1.70;95.40
31819;DHT22;18384;48.860;9.188;2023-03-01T01:02:00;1.80;95.40
31819;DHT22;18384;48.860;9.188;2023-03-01T01:04:26;1.80;95.30
31819;DHT22;18384;48.860;9.188;2023-03-01T01:06:52;1.80;95.30
31819;DHT22;18384;48.860;9.188;2023-03-01T01:09:18;1.80;95.30
31819;DHT22;18384;48.860;9.188;2023-03-01T01:11:45;1.70;95.30
31819;DHT22;18384;48.860;9.188;2023-03-01T01:14:12;1.80;95.30
31819;DHT22;18384;48.860;9.188;2023-03-01T01:16:38;1.70;95.30
31819;DHT22;18384;48.860;9.188;2023-03-01T01:19:04;1.70;95.40
31819;DHT22;18384;48.860;9.188;2023-03-01T01:21:30;1.70;95.40
31819;DHT22;18384;48.860;9.188;2023-03-01T01:23:57;1.70;95.50
31819;DHT22;18384;48.860;9.188;2023-03-01T01:26:24;1.80;95.50
31819;DHT22;18384;48.860;9.188;2023-03-01T01:28:52;1.80;95.40
31819;DHT22;18384;48.860;9.188;2023-03-01T01:31:18;1.70;95.40
31819;DHT22;18384;48.860;9.188;2023-03-01T01:33:45;1.70;95.50
31819;DHT22;18384;48.860;9.188;2023-03-01T01:36:11;1.70;95.60
31819;DHT22;18384;48.860;9.188;2023-03-01T01:38:37;1.70;95.60
31819;DHT22;18384;48.860;9.188;2023-03-01T01:41:05;1.70;95.60
31819;DHT22;18384;48.860;9.188;2023-03-01T01:43:33;1.70;95.60
31819;DHT22;18384;48.860;9.188;2023-03-01T01:46:02;1.70;95.70
31819;DHT22;18384;48.860;9.188;2023-03-01T01:48:52;1.70;95.50
31819;DHT22;18384;48.860;9.188;2023-03-01T01:51:25;1.60;95.60
31819;DHT22;18384;48.860;9.188;2023-03-01T01:53:58;1.60;95.60
31819;DHT22;18384;48.860;9.188;2023-03-01T01:56:26;1.60;95.70
31819;DHT22;18384;48.860;9.188;2023-03-01T01:58:54;1.60;95.70
31819;DHT22;18384;48.860;9.188;2023-03-01T02:01:21;1.60;95.70
31819;DHT22;18384;48.860;9.188;2023-03-01T02:03:47;1.60;95.70
31819;DHT22;18384;48.860;9.188;2023-03-01T02:10:10;1.80;95.50
31819;DHT22;18384;48.860;9.188;2023-03-01T02:12:36;1.80;95.50
31819;DHT22;18384;48.860;9.188;2023-03-01T02:15:03;1.90;95.50
31819;DHT22;18384;48.860;9.188;2023-03-01T02:17:29;1.80;95.50
31819;DHT22;18384;48.860;9.188;2023-03-01T02:20:09;1.80;95.50
31819;DHT22;18384;48.860;9.188;2023-03-01T02:22:59;1.80;95.50
31819;DHT22;18384;48.860;9.188;2023-03-01T02:25:49;1.80;95.60
31819;DHT22;18384;48.860;9.188;2023-03-01T02:28:30;1.90;95.50
31819;DHT22;18384;48.860;9.188;2023-03-01T02:30:57;1.90;95.60
31819;DHT22;18384;48.860;9.188;2023-03-01T02:33:41;1.90;95.50
31819;DHT22;18384;48.860;9.188;2023-03-01T02:36:09;2.00;95.50
31819;DHT22;18384;48.860;9.188;2023-03-01T02:38:39;2.00;95.40
31819;DHT22;18384;48.860;9.188;2023-03-01T02:41:06;2.10;95.30
31819;DHT22;18384;48.860;9.188;2023-03-01T02:43:33;2.00;95.30
31819;DHT22;18384;48.860;9.188;2023-03-01T02:46:05;2.00;95.40
31819;DHT22;18384;48.860;9.188;2023-03-01T02:48:40;2.10;95.60
31819;DHT22;18384;48.860;9.188;2023-03-01T02:55:26;2.20;95.20
31819;DHT22;18384;48.860;9.188;2023-03-01T02:57:52;2.20;95.30
31819;DHT22;18384;48.860;9.188;2023-03-01T03:00:20;2.30;95.20
31819;DHT22;18384;48.860;9.188;2023-03-01T03:02:49;2.40;95.20
31819;DHT22;18384;48.860;9.188;2023-03-01T03:05:17;2.30;95.10
31819;DHT22;18384;48.860;9.188;2023-03-01T03:07:46;2.20;95.20
31819;DHT22;18384;48.860;9.188;2023-03-01T03:10:18;2.30;95.20
31819;DHT22;18384;48.860;9.188;2023-03-01T03:12:52;2.30;95.40
31819;DHT22;18384;48.860;9.188;2023-03-01T03:15:20;2.30;95.30
31819;DHT22;18384;48.860;9.188;2023-03-01T03:17:47;2.40;95.30
31819;DHT22;18384;48.860;9.188;2023-03-01T03:20:14;2.30;95.10
31819;DHT22;18384;48.860;9.188;2023-03-01T03:22:48;2.30;95.20
31819;DHT22;18384;48.860;9.188;2023-03-01T03:25:15;2.30;95.20
31819;DHT22;18384;48.860;9.188;2023-03-01T03:27:43;2.30;95.10
31819;DHT22;18384;48.860;9.188;2023-03-01T03:30:11;2.30;95.20
31819;DHT22;18384;48.860;9.188;2023-03-01T03:32:39;1.40;95.20
31819;DHT22;18384;48.860;9.188;2023-03-01T03:35:07;2.30;95.40
31819;DHT22;18384;48.860;9.188;2023-03-01T03:37:40;2.20;95.40
31819;DHT22;18384;48.860;9.188;2023-03-01T03:40:28;2.30;95.50
31819;DHT22;18384;48.860;9.188;2023-03-01T03:42:58;2.30;95.40
31819;DHT22;18384;48.860;9.188;2023-03-01T03:45:24;2.30;95.50
31819;DHT22;18384;48.860;9.188;2023-03-01T03:47:50;2.40;95.50
31819;DHT22;18384;48.860;9.188;2023-03-01T03:50:17;2.30;95.40
31819;DHT22;18384;48.860;9.188;2023-03-01T03:52:43;2.30;95.40
31819;DHT22;18384;48.860;9.188;2023-03-01T03:55:10;2.30;95.30
31819;DHT22;18384;48.860;9.188;2023-03-01T03:57:40;2.30;95.40
31819;DHT22;18384;48.860;9.188;2023-03-01T04:00:07;2.30;95.30
31819;DHT22;18384;48.860;9.188;2023-03-01T04:02:39;2.30;95.30
31819;DHT22;18384;48.860;9.188;2023-03-01T04:05:06;2.20;95.40
31819;DHT22;18384;48.860;9.188;2023-03-01T04:07:33;2.30;95.50
31819;DHT22;18384;48.860;9.188;2023-03-01T04:10:03;2.30;95.40
31819;DHT22;18384;48.860;9.188;2023-03-01T04:12:30;2.30;95.40
31819;DHT22;18384;48.860;9.188;2023-03-01T04:14:56;2.20;95.50
31819;DHT22;18384;48.860;9.188;2023-03-01T04:17:23;2.20;95.50
31819;DHT22;18384;48.860;9.188;2023-03-01T04:19:49;2.20;95.60
31819;DHT22;18384;48.860;9.188;2023-03-01T04:22:15;2.30;95.50
31819;DHT22;18384;48.860;9.188;2023-03-01T04:24:42;2.30;95.50
31819;DHT22;18384;48.860;9.188;2023-03-01T04:27:08;2.30;95.60
31819;DHT22;18384;48.860;9.188;2023-03-01T04:29:34;2.40;95.50
31819;DHT22;18384;48.860;9.188;2023-03-01T04:32:00;2.40;95.20
31819;DHT22;18384;48.860;9.188;2023-03-01T04:34:28;2.40;95.50
31819;DHT22;18384;48.860;9.188;2023-03-01T04:36:55;2.50;95.40
31819;DHT22;18384;48.860;9.188;2023-03-01T04:39:21;2.50;95.20
31819;DHT22;18384;48.860;9.188;2023-03-01T04:41:47;2.50;95.30
31819;DHT22;18384;48.860;9.188;2023-03-01T04:44:13;2.50;95.30
31819;DHT22;18384;48.860;9.188;2023-03-01T04:46:39;2.40;95.20
31819;DHT22;18384;48.860;9.188;2023-03-01T04:49:05;2.40;95.40
31819;DHT22;18384;48.860;9.188;2023-03-01T04:51:31;2.40;95.40
31819;DHT22;18384;48.860;9.188;2023-03-01T04:53:58;2.40;95.30
31819;DHT22;18384;48.860;9.188;2023-03-01T04:56:25;2.50;95.40
31819;DHT22;18384;48.860;9.188;2023-03-01T04:58:53;2.50;95.50
31819;DHT22;18384;48.860;9.188;2023-03-01T05:01:19;2.50;95.30
31819;DHT22;18384;48.860;9.188;2023-03-01T05:03:46;2.60;95.30
31819;DHT22;18384;48.860;9.188;2023-03-01T05:06:14;2.60;95.10
31819;DHT22;18384;48.860;9.188;2023-03-01T05:08:41;2.60;95.20
31819;DHT22;18384;48.860;9.188;2023-03-01T05:11:07;2.60;95.30
31819;DHT22;18384;48.860;9.188;2023-03-01T05:13:34;2.50;95.20
31819;DHT22;18384;48.860;9.188;2023-03-01T05:16:01;2.50;95.20
31819;DHT22;18384;48.860;9.188;2023-03-01T05:18:29;1.50;95.10
31819;DHT22;18384;48.860;9.188;2023-03-01T05:21:01;2.60;95.30
31819;DHT22;18384;48.860;9.188;2023-03-01T05:23:31;2.50;95.10
31819;DHT22;18384;48.860;9.188;2023-03-01T05:25:59;2.40;95.30
31819;DHT22;18384;48.860;9.188;2023-03-01T05:28:25;2.40;95.40
31819;DHT22;18384;48.860;9.188;2023-03-01T05:30:52;2.40;95.50
31819;DHT22;18384;48.860;9.188;2023-03-01T05:33:18;2.50;95.60
31819;DHT22;18384;48.860;9.188;2023-03-01T05:35:44;2.50;95.40
31819;DHT22;18384;48.860;9.188;2023-03-01T05:38:11;2.50;95.20
31819;DHT22;18384;48.860;9.188;2023-03-01T05:40:41;2.60;95.40
31819;DHT22;18384;48.860;9.188;2023-03-01T05:43:07;2.60;95.20
31819;DHT22;18384;48.860;9.188;2023-03-01T05:45:35;2.60;95.30
31819;DHT22;18384;48.860;9.188;2023-03-01T05:48:01;2.60;95.20
31819;DHT22;18384;48.860;9.188;2023-03-01T05:50:29;2.60;95.40
31819;DHT22;18384;48.860;9.188;2023-03-01T05:53:04;2.60;95.20
31819;DHT22;18384;48.860;9.188;2023-03-01T05:55:33;3.70;95.50
31819;DHT22;18384;48.860;9.188;2023-03-01T05:58:07;2.60;95.20
31819;DHT22;18384;48.860;9.188;2023-03-01T06:00:39;2.70;95.30
31819;DHT22;18384;48.860;9.188;2023-03-01T06:03:05;2.70;95.20
31819;DHT22;18384;48.860;9.188;2023-03-01T06:05:31;2.70;95.10
31819;DHT22;18384;48.860;9.188;2023-03-01T06:08:01;2.70;95.20
31819;DHT22;18384;48.860;9.188;2023-03-01T06:10:27;2.70;95.20
31819;DHT22;18384;48.860;9.188;2023-03-01T06:12:53;2.70;95.20
31819;DHT22;18384;48.860;9.188;2023-03-01T06:15:19;2.80;95.20
31819;DHT22;18384;48.860;9.188;2023-03-01T06:17:46;2.80;95.40
31819;DHT22;18384;48.860;9.188;2023-03-01T06:20:13;2.80;95.10
31819;DHT22;18384;48.860;9.188;2023-03-01T06:22:44;2.80;95.20
31819;DHT22;18384;48.860;9.188;2023-03-01T06:25:11;2.90;95.00
31819;DHT22;18384;48.860;9.188;2023-03-01T06:27:38;2.90;95.10
31819;DHT22;18384;48.860;9.188;2023-03-01T06:30:05;2.80;95.00
31819;DHT22;18384;48.860;9.188;2023-03-01T06:32:33;2.80;95.00
31819;DHT22;18384;48.860;9.188;2023-03-01T06:34:59;2.70;95.10
31819;DHT22;18384;48.860;9.188;2023-03-01T06:37:25;2.60;95.00
31819;DHT22;18384;48.860;9.188;2023-03-01T06:39:51;2.50;95.10
31819;DHT22;18384;48.860;9.188;2023-03-01T06:42:17;2.50;95.30
31819;DHT22;18384;48.860;9.188;2023-03-01T06:44:43;2.40;95.40
31819;DHT22;18384;48.860;9.188;2023-03-01T06:47:10;2.40;95.40
31819;DHT22;18384;48.860;9.188;2023-03-01T06:49:35;2.30;95.80
31819;DHT22;18384;48.860;9.188;2023-03-01T06:52:01;2.30;95.70
31819;DHT22;18384;48.860;9.188;2023-03-01T06:54:27;2.30;95.70
31819;DHT22;18384;48.860;9.188;2023-03-01T06:56:53;2.20;95.60
31819;DHT22;18384;48.860;9.188;2023-03-01T06:59:20;2.10;95.60
31819;DHT22;18384;48.860;9.188;2023-03-01T07:01:46;2.10;95.70
31819;DHT22;18384;48.860;9.188;2023-03-01T07:04:12;2.10;95.60
31819;DHT22;18384;48.860;9.188;2023-03-01T07:06:39;2.00;95.60
31819;DHT22;18384;48.860;9.188;2023-03-01T07:09:05;1.90;95.70
31819;DHT22;18384;48.860;9.188;2023-03-01T07:11:31;1.90;95.60
31819;DHT22;18384;48.860;9.188;2023-03-01T07:13:58;2.00;95.80
31819;DHT22;18384;48.860;9.188;2023-03-01T07:16:25;2.00;95.70
31819;DHT22;18384;48.860;9.188;2023-03-01T07:18:51;2.00;95.70
31819;DHT22;18384;48.860;9.188;2023-03-01T07:21:17;2.00;95.60
31819;DHT22;18384;48.860;9.188;2023-03-01T07:23:43;1.90;95.70
31819;DHT22;18384;48.860;9.188;2023-03-01T07:26:09;1.90;95.60
31819;DHT22;18384;48.860;9.188;2023-03-01T07:28:35;2.00;95.70
31819;DHT22;18384;48.860;9.188;2023-03-01T07:31:04;2.10;95.70
31819;DHT22;18384;48.860;9.188;2023-03-01T07:33:31;2.10;95.70
31819;DHT22;18384;48.860;9.188;2023-03-01T07:35:57;2.00;95.60
31819;DHT22;18384;48.860;9.188;2023-03-01T07:38:24;2.10;95.70
31819;DHT22;18384;48.860;9.188;2023-03-01T07:40:50;2.00;95.60
31819;DHT22;18384;48.860;9.188;2023-03-01T07:43:16;2.00;95.70
31819;DHT22;18384;48.860;9.188;2023-03-01T07:45:42;2.00;95.80
31819;DHT22;18384;48.860;9.188;2023-03-01T07:48:08;2.10;95.60
31819;DHT22;18384;48.860;9.188;2023-03-01T07:50:35;2.20;95.50
31819;DHT22;18384;48.860;9.188;2023-03-01T07:53:01;2.20;95.30
31819;DHT22;18384;48.860;9.188;2023-03-01T07:55:28;2.20;95.30
31819;DHT22;18384;48.860;9.188;2023-03-01T07:57:53;2.30;95.30
31819;DHT22;18384;48.860;9.188;2023-03-01T08:00:20;2.30;95.10
31819;DHT22;18384;48.860;9.188;2023-03-01T08:02:45;2.20;95.20
31819;DHT22;18384;48.860;9.188;2023-03-01T08:05:11;2.20;95.30
31819;DHT22;18384;48.860;9.188;2023-03-01T08:07:37;2.30;95.30
31819;DHT22;18384;48.860;9.188;2023-03-01T08:10:03;2.20;95.30
31819;DHT22;18384;48.860;9.188;2023-03-01T08:12:30;2.30;95.40
31819;DHT22;18384;48.860;9.188;2023-03-01T08:14:56;2.50;95.20
31819;DHT22;18384;48.860;9.188;2023-03-01T08:17:22;2.50;95.00
31819;DHT22;18384;48.860;9.188;2023-03-01T08:19:48;2.60;95.00
31819;DHT22;18384;48.860;9.188;2023-03-01T08:22:14;2.60;94.70
31819;DHT22;18384;48.860;9.188;2023-03-01T08:24:40;2.60;94.80
31819;DHT22;18384;48.860;9.188;2023-03-01T08:27:06;2.70;94.70
31819;DHT22;18384;48.860;9.188;2023-03-01T08:29:32;2.60;94.50
31819;DHT22;18384;48.860;9.188;2023-03-01T08:31:58;2.60;94.50
31819;DHT22;18384;48.860;9.188;2023-03-01T08:34:24;2.60;94.50
31819;DHT22;18384;48.860;9.188;2023-03-01T08:36:51;2.60;94.50
31819;DHT22;18384;48.860;9.188;2023-03-01T08:39:18;2.70;94.50
31819;DHT22;18384;48.860;9.188;2023-03-01T08:41:45;2.70;94.50
31819;DHT22;18384;48.860;9.188;2023-03-01T08:44:12;2.70;94.60
31819;DHT22;18384;48.860;9.188;2023-03-01T08:46:40;2.80;94.60
31819;DHT22;18384;48.860;9.188;2023-03-01T08:49:07;2.90;94.40
31819;DHT22;18384;48.860;9.188;2023-03-01T08:51:36;2.90;94.20
31819;DHT22;18384;48.860;9.188;2023-03-01T08:54:05;3.00;94.30
31819;DHT22;18384;48.860;9.188;2023-03-01T08:56:33;3.10;94.20
31819;DHT22;18384;48.860;9.188;2023-03-01T08:58:59;3.00;94.10
31819;DHT22;18384;48.860;9.188;2023-03-01T09:01:25;3.00;94.30
31819;DHT22;18384;48.860;9.188;2023-03-01T09:03:51;3.10;94.20
31819;DHT22;18384;48.860;9.188;2023-03-01T09:06:17;3.20;94.20
31819;DHT22;18384;48.860;9.188;2023-03-01T09:08:44;3.10;93.90
31819;DHT22;18384;48.860;9.188;2023-03-01T09:11:14;3.10;93.90
31819;DHT22;18384;48.860;9.188;2023-03-01T09:13:42;3.10;94.00
31819;DHT22;18384;48.860;9.188;2023-03-01T09:16:10;3.20;94.00
31819;DHT22;18384;48.860;9.188;2023-03-01T09:18:36;3.20;94.00
31819;DHT22;18384;48.860;9.188;2023-03-01T09:21:10;3.20;93.90
31819;DHT22;18384;48.860;9.188;2023-03-01T09:23:41;3.30;93.80
31819;DHT22;18384;48.860;9.188;2023-03-01T09:26:09;3.40;93.90
31819;DHT22;18384;48.860;9.188;2023-03-01T09:28:42;3.30;93.60
31819;DHT22;18384;48.860;9.188;2023-03-01T09:31:09;3.40;94.00
31819;DHT22;18384;48.860;9.188;2023-03-01T09:33:38;3.40;93.70
31819;DHT22;18384;48.860;9.188;2023-03-01T09:36:06;3.50;93.70
31819;DHT22;18384;48.860;9.188;2023-03-01T09:38:35;3.60;93.80
31819;DHT22;18384;48.860;9.188;2023-03-01T09:41:01;3.20;93.30
31819;DHT22;18384;48.860;9.188;2023-03-01T09:46:13;3.70;93.40
31819;DHT22;18384;48.860;9.188;2023-03-01T09:48:46;3.80;93.40
31819;DHT22;18384;48.860;9.188;2023-03-01T09:51:18;3.80;93.40
31819;DHT22;18384;48.860;9.188;2023-03-01T09:53:48;3.90;93.30
31819;DHT22;18384;48.860;9.188;2023-03-01T09:56:19;3.90;93.10
31819;DHT22;18384;48.860;9.188;2023-03-01T09:58:54;3.90;93.40
31819;DHT22;18384;48.860;9.188;2023-03-01T10:01:40;4.00;93.50
31819;DHT22;18384;48.860;9.188;2023-03-01T10:08:24;4.10;93.00
31819;DHT22;18384;48.860;9.188;2023-03-01T10:11:02;4.20;93.10
31819;DHT22;18384;48.860;9.188;2023-03-01T10:13:33;4.30;92.70
31819;DHT22;18384;48.860;9.188;2023-03-01T10:17:04;4.30;92.70
31819;DHT22;18384;48.860;9.188;2023-03-01T10:19:50;4.40;92.50
31819;DHT22;18384;48.860;9.188;2023-03-01T10:22:20;4.50;92.60
31819;DHT22;18384;48.860;9.188;2023-03-01T10:24:48;4.50;92.50
31819;DHT22;18384;48.860;9.188;2023-03-01T10:27:24;4.60;92.40
31819;DHT22;18384;48.860;9.188;2023-03-01T10:32:43;4.70;92.40
31819;DHT22;18384;48.860;9.188;2023-03-01T10:35:19;4.80;92.20
31819;DHT22;18384;48.860;9.188;2023-03-01T10:38:05;4.70;92.20
31819;DHT22;18384;48.860;9.188;2023-03-01T10:40:33;4.70;92.10
31819;DHT22;18384;48.860;9.188;2023-03-01T10:43:01;4.80;92.00
31819;DHT22;18384;48.860;9.188;2023-03-01T10:48:17;4.90;92.00
31819;DHT22;18384;48.860;9.188;2023-03-01T10:50:50;5.00;92.00
31819;DHT22;18384;48.860;9.188;2023-03-01T10:53:50;5.20;92.00
31819;DHT22;18384;48.860;9.188;2023-03-01T10:56:17;5.30;91.60
31819;DHT22;18384;48.860;9.188;2023-03-01T10:58:59;5.40;91.20
31819;DHT22;18384;48.860;9.188;2023-03-01T11:01:30;5.40;91.40
31819;DHT22;18384;48.860;9.188;2023-03-01T11:04:11;5.40;91.10
31819;DHT22;18384;48.860;9.188;2023-03-01T11:06:40;5.50;91.00
31819;DHT22;18384;48.860;9.188;2023-03-01T11:09:13;5.60;90.90
31819;DHT22;18384;48.860;9.188;2023-03-01T11:11:52;5.70;91.00
31819;DHT22;18384;48.860;9.188;2023-03-01T11:14:23;5.80;91.00
31819;DHT22;18384;48.860;9.188;2023-03-01T11:19:40;5.90;90.90
31819;DHT22;18384;48.860;9.188;2023-03-01T11:25:26;5.90;90.80
31819;DHT22;18384;48.860;9.188;2023-03-01T11:27:55;6.00;90.50
31819;DHT22;18384;48.860;9.188;2023-03-01T11:30:27;6.00;90.60
31819;DHT22;18384;48.860;9.188;2023-03-01T11:32:59;6.10;90.50
31819;DHT22;18384;48.860;9.188;2023-03-01T11:35:53;6.20;90.30
31819;DHT22;18384;48.860;9.188;2023-03-01T11:38:27;6.20;90.30
31819;DHT22;18384;48.860;9.188;2023-03-01T11:41:14;6.30;90.30
31819;DHT22;18384;48.860;9.188;2023-03-01T11:43:47;6.30;90.30
31819;DHT22;18384;48.860;9.188;2023-03-01T11:46:39;6.40;90.20
31819;DHT22;18384;48.860;9.188;2023-03-01T11:50:47;6.40;90.00
31819;DHT22;18384;48.860;9.188;2023-03-01T11:53:22;6.50;90.10
31819;DHT22;18384;48.860;9.188;2023-03-01T11:56:22;6.50;90.00
31819;DHT22;18384;48.860;9.188;2023-03-01T12:04:26;6.50;90.20
31819;DHT22;18384;48.860;9.188;2023-03-01T12:07:37;6.50;90.20
31819;DHT22;18384;48.860;9.188;2023-03-01T12:10:17;6.60;90.10
31819;DHT22;18384;48.860;9.188;2023-03-01T12:13:08;6.70;90.00
31819;DHT22;18384;48.860;9.188;2023-03-01T12:20:14;6.60;90.10
31819;DHT22;18384;48.860;9.188;2023-03-01T12:22:56;6.60;90.00
31819;DHT22;18384;48.860;9.188;2023-03-01T12:27:19;6.70;90.00
31819;DHT22;18384;48.860;9.188;2023-03-01T12:32:57;6.70;89.70
31819;DHT22;18384;48.860;9.188;2023-03-01T12:35:47;6.80;89.60
31819;DHT22;18384;48.860;9.188;2023-03-01T12:43:59;6.90;89.40
31819;DHT22;18384;48.860;9.188;2023-03-01T12:49:32;6.90;89.60
31819;DHT22;18384;48.860;9.188;2023-03-01T12:52:02;6.90;89.50
31819;DHT22;18384;48.860;9.188;2023-03-01T12:54:36;7.00;89.90
31819;DHT22;18384;48.860;9.188;2023-03-01T12:57:06;7.10;89.50
31819;DHT22;18384;48.860;9.188;2023-03-01T13:00:00;7.10;89.00
31819;DHT22;18384;48.860;9.188;2023-03-01T13:02:52;7.10;89.00
31819;DHT22;18384;48.860;9.188;2023-03-01T13:13:00;7.20;88.60
31819;DHT22;18384;48.860;9.188;2023-03-01T13:15:29;7.20;88.60
31819;DHT22;18384;48.860;9.188;2023-03-01T13:18:39;7.30;89.00
31819;DHT22;18384;48.860;9.188;2023-03-01T13:21:05;7.30;88.10
31819;DHT22;18384;48.860;9.188;2023-03-01T13:23:33;7.30;88.10
31819;DHT22;18384;48.860;9.188;2023-03-01T13:28:48;7.30;88.50
31819;DHT22;18384;48.860;9.188;2023-03-01T13:34:39;7.40;88.40
31819;DHT22;18384;48.860;9.188;2023-03-01T13:37:10;7.40;88.60
31819;DHT22;18384;48.860;9.188;2023-03-01T13:39:44;7.50;88.20
31819;DHT22;18384;48.860;9.188;2023-03-01T13:46:35;7.50;87.90
31819;DHT22;18384;48.860;9.188;2023-03-01T13:49:02;7.50;88.40
31819;DHT22;18384;48.860;9.188;2023-03-01T13:51:28;7.50;88.30
31819;DHT22;18384;48.860;9.188;2023-03-01T13:53:55;7.40;88.30
31819;DHT22;18384;48.860;9.188;2023-03-01T13:56:28;7.50;88.50
31819;DHT22;18384;48.860;9.188;2023-03-01T13:59:02;7.50;88.70
31819;DHT22;18384;48.860;9.188;2023-03-01T14:01:39;7.50;88.50
31819;DHT22;18384;48.860;9.188;2023-03-01T14:04:19;7.50;88.80
31819;DHT22;18384;48.860;9.188;2023-03-01T14:06:47;7.40;89.10
31819;DHT22;18384;48.860;9.188;2023-03-01T14:09:23;7.40;89.20
31819;DHT22;18384;48.860;9.188;2023-03-01T14:12:39;7.50;89.00
31819;DHT22;18384;48.860;9.188;2023-03-01T14:16:19;7.50;89.40
31819;DHT22;18384;48.860;9.188;2023-03-01T14:19:21;7.50;89.00
31819;DHT22;18384;48.860;9.188;2023-03-01T14:25:32;7.40;89.20
31819;DHT22;18384;48.860;9.188;2023-03-01T14:28:18;7.40;89.40
31819;DHT22;18384;48.860;9.188;2023-03-01T14:31:00;7.40;89.60
31819;DHT22;18384;48.860;9.188;2023-03-01T14:33:33;7.30;89.90
31819;DHT22;18384;48.860;9.188;2023-03-01T14:36:03;7.40;89.60
31819;DHT22;18384;48.860;9.188;2023-03-01T14:38:39;7.40;89.60
31819;DHT22;18384;48.860;9.188;2023-03-01T14:41:14;7.40;89.50
31819;DHT22;18384;48.860;9.188;2023-03-01T14:43:45;7.50;89.60
31819;DHT22;18384;48.860;9.188;2023-03-01T14:46:26;7.50;89.80
31819;DHT22;18384;48.860;9.188;2023-03-01T14:48:57;7.50;90.00
31819;DHT22;18384;48.860;9.188;2023-03-01T14:51:29;7.60;89.80
31819;DHT22;18384;48.860;9.188;2023-03-01T14:53:55;7.60;89.30
31819;DHT22;18384;48.860;9.188;2023-03-01T14:56:21;7.50;89.20
31819;DHT22;18384;48.860;9.188;2023-03-01T14:58:51;7.50;89.50
31819;DHT22;18384;48.860;9.188;2023-03-01T15:01:19;7.50;89.50
31819;DHT22;18384;48.860;9.188;2023-03-01T15:03:46;7.50;89.80
31819;DHT22;18384;48.860;9.188;2023-03-01T15:06:18;7.50;89.50
31819;DHT22;18384;48.860;9.188;2023-03-01T15:08:46;7.50;89.50
31819;DHT22;18384;48.860;9.188;2023-03-01T15:11:21;7.50;89.40
31819;DHT22;18384;48.860;9.188;2023-03-01T15:13:50;7.40;89.50
31819;DHT22;18384;48.860;9.188;2023-03-01T15:16:18;7.40;89.30
31819;DHT22;18384;48.860;9.188;2023-03-01T15:18:53;7.40;89.50
31819;DHT22;18384;48.860;9.188;2023-03-01T15:21:34;7.40;89.30
31819;DHT22;18384;48.860;9.188;2023-03-01T15:24:20;7.40;89.10
31819;DHT22;18384;48.860;9.188;2023-03-01T15:26:53;7.40;89.10
31819;DHT22;18384;48.860;9.188;2023-03-01T15:29:24;7.30;89.00
31819;DHT22;18384;48.860;9.188;2023-03-01T15:31:56;7.30;89.00
31819;DHT22;18384;48.860;9.188;2023-03-01T15:34:30;7.20;88.90
31819;DHT22;18384;48.860;9.188;2023-03-01T15:37:00;7.30;89.30
31819;DHT22;18384;48.860;9.188;2023-03-01T15:39:32;7.30;89.20
31819;DHT22;18384;48.860;9.188;2023-03-01T15:42:23;7.20;89.20
31819;DHT22;18384;48.860;9.188;2023-03-01T15:45:08;7.30;89.30
31819;DHT22;18384;48.860;9.188;2023-03-01T15:47:35;7.30;89.30
31819;DHT22;18384;48.860;9.188;2023-03-01T15:50:05;7.20;89.10
31819;DHT22;18384;48.860;9.188;2023-03-01T15:52:41;7.20;89.20
31819;DHT22;18384;48.860;9.188;2023-03-01T15:55:15;7.20;89.40
31819;DHT22;18384;48.860;9.188;2023-03-01T15:57:46;7.30;89.50
31819;DHT22;18384;48.860;9.188;2023-03-01T16:00:12;7.20;89.40
31819;DHT22;18384;48.860;9.188;2023-03-01T16:02:40;7.20;89.40
31819;DHT22;18384;48.860;9.188;2023-03-01T16:05:14;7.20;89.40
31819;DHT22;18384;48.860;9.188;2023-03-01T16:07:43;7.20;89.00
31819;DHT22;18384;48.860;9.188;2023-03-01T16:10:09;7.20;89.20
31819;DHT22;18384;48.860;9.188;2023-03-01T16:12:35;7.10;89.60
31819;DHT22;18384;48.860;9.188;2023-03-01T16:15:01;7.20;89.30
31819;DHT22;18384;48.860;9.188;2023-03-01T16:17:27;7.10;89.40
31819;DHT22;18384;48.860;9.188;2023-03-01T16:19:54;7.10;89.70
31819;DHT22;18384;48.860;9.188;2023-03-01T16:22:20;7.10;89.70
31819;DHT22;18384;48.860;9.188;2023-03-01T16:24:50;7.10;89.50
31819;DHT22;18384;48.860;9.188;2023-03-01T16:27:16;7.10;89.40
31819;DHT22;18384;48.860;9.188;2023-03-01T16:29:42;7.10;89.60
31819;DHT22;18384;48.860;9.188;2023-03-01T16:32:08;7.10;90.10
31819;DHT22;18384;48.860;9.188;2023-03-01T16:34:34;7.10;89.70
31819;DHT22;18384;48.860;9.188;2023-03-01T16:37:00;7.00;89.70
31819;DHT22;18384;48.860;9.188;2023-03-01T16:39:26;7.00;89.80
31819;DHT22;18384;48.860;9.188;2023-03-01T16:41:52;7.00;89.80
31819;DHT22;18384;48.860;9.188;2023-03-01T16:44:18;6.90;89.90
31819;DHT22;18384;48.860;9.188;2023-03-01T16:46:44;6.90;89.80
31819;DHT22;18384;48.860;9.188;2023-03-01T16:49:10;6.90;89.90
31819;DHT22;18384;48.860;9.188;2023-03-01T16:51:36;6.80;89.90
31819;DHT22;18384;48.860;9.188;2023-03-01T16:54:02;6.80;90.00
31819;DHT22;18384;48.860;9.188;2023-03-01T16:56:29;7.00;90.10
31819;DHT22;18384;48.860;9.188;2023-03-01T16:58:57;6.80;90.10
31819;DHT22;18384;48.860;9.188;2023-03-01T17:01:24;6.70;90.00
31819;DHT22;18384;48.860;9.188;2023-03-01T17:03:51;6.70;90.10
31819;DHT22;18384;48.860;9.188;2023-03-01T17:06:18;6.70;90.20
31819;DHT22;18384;48.860;9.188;2023-03-01T17:08:45;6.70;90.20
31819;DHT22;18384;48.860;9.188;2023-03-01T17:11:16;6.60;90.20
31819;DHT22;18384;48.860;9.188;2023-03-01T17:13:44;6.50;90.20
31819;DHT22;18384;48.860;9.188;2023-03-01T17:16:11;6.50;90.30
31819;DHT22;18384;48.860;9.188;2023-03-01T17:18:39;6.50;90.40